Página principal
METAR-TAF:

METAR-TAF

Aeroportos :

Chongqing, China

Aeroporto Internacional de Chongqing Jiangbei

latitude: 29-31N, longitude: 106-29E, altura: 351 m

Observação actual do tempo

O boletim foi feito há 1 hora e 16 minutos, às 01:00 UTC
Vento 4 kt de nor-nordeste
Temperatura 16°C
Humidade 63%
Pressão 1016 hPa
Visibilidade 10 km ou mais
sem nuvens abaixo de 1500 metros e sem cumulonimbus

METAR: ZUCK 280100Z 02002MPS CAVOK 16/09 Q1016 NOSIG

Hora: 10:16 (02:16 UTC)

Previsão

O boletim foi feito há 7 horas e 9 minutos, às 19:07 UTC
Previsão válida de 28 às 00 UTC a 28 às 24 UTC
Vento 6 kt de norte
Visibilidade: 5000 m
Nuvens dispersasa uma altura de 5000 ft
neblina

TAF: ZUCK 271907Z 2800/2824 36003MPS 5000 BR SCT050 TX22/2807Z TN13/2822Z

Observações e previsões do tempo de mais de 4000 aeroportos (mensagens METAR e TAF).

As estações disponíveis são os pontos amarelos e vermelhos sobre o mapa.

Mova o rato sobre o mapa para ver o nome da estação.

Depois clique no ponto para visualizar as observações e previsões meteorológicas.

Para alterar o mapa : clique nos botões verdes com uma cruz preta para aumentar o zoom; no botão verde com uma pitada de zoom; ou nas setas verdes para mapas adjacentes.


METAR-TAF: